Terminal Aerodrome Forecast
Issued by NWS Duluth, MN

Home | Current Version | Previous Version | Text Only | Print | Product List | Glossary On
Versions: 1 2 3 4 5 6 7 8 9 10 11 12 13 14 15 16 17 18 19 20 21 22 23 24 25 26 27 28 29 30 31 32 33
000
FTUS43 KDLH 211800 CCA
TAFDLH
TAF AMD
KDLH 211807Z 2118/2218 15012KT 1SM -DZSN BR OVC004
      TEMPO 2118/2120 1/4SM FZFG OVC002
     FM212000 12008KT 1SM -DZSN BR OVC003
     FM220800 10005KT 3/4SM -DZ BR OVC002=

USA.gov is the U.S. government's official web portal to all federal, state and local government web resources and services.